Time;durP1;ratioP1;P1;durP2;ratioP2;P2;SDS_P1;SDS_P2;PMS_P1;PMS_P2;Temp;Humidity;BMP_temperature;BMP_pressure;BME280_temperature;BME280_humidity;BME280_pressure;Samples;Min_cycle;Max_cycle;Signal;HPM_P1;HPM_P2
2023/06/21 00:00:51;;;;;;;;;;;;;;;;;;5091766;28;19926;-59
2023/06/21 00:03:17;;;;;;;;;;;;;;;;;;5091612;28;19967;-59
2023/06/21 00:05:43;;;;;;;;;;;;;;;;;;5091389;28;19978;-58
2023/06/21 00:08:09;;;;;;;;;;;;;;;;;;5091853;28;19928;-58
2023/06/21 00:10:35;;;;;;;;;;;;;;;;;;5091856;28;19943;-58
2023/06/21 00:13:01;;;;;;;;;;;;;;;;;;5091144;28;19924;-58
2023/06/21 00:15:27;;;;;;;;;;;;;;;;;;5091515;28;19950;-59
2023/06/21 00:17:53;;;;;;;;;;;;;;;;;;5091660;28;19924;-59
2023/06/21 00:20:19;;;;;;;;;;;;;;;;;;5091323;28;19942;-58
2023/06/21 00:22:47;;;;;;;;;;;;;;;;;;5091551;28;19920;-58
2023/06/21 00:25:14;;;;;;;;;;;;;;;;;;5089586;28;20280;-59
2023/06/21 00:27:42;;;;;;;;;;;;;;;;;;5070622;28;19924;-58
2023/06/21 00:30:08;;;;;;;;;;;;;;;;;;5077143;28;19924;-58
2023/06/21 00:32:34;;;;;;;;;;;;;;;;;;5072960;28;19947;-58
2023/06/21 00:34:59;;;;;;;;;;;;;;;;;;5090601;28;19927;-59
2023/06/21 00:37:26;;;;;;;;;;;;;;;;;;5091397;28;19963;-58
2023/06/21 00:39:52;;;;;;;;;;;;;;;;;;5091169;28;19924;-59
2023/06/21 00:42:20;;;;;;;;;;;;;;;;;;5090726;28;19924;-59
2023/06/21 00:44:46;;;;;;;;;;;;;;;;;;5091022;28;20130;-59
2023/06/21 00:47:12;;;;;;;;;;;;;;;;;;5091010;28;19924;-58
2023/06/21 00:49:38;;;;;;;;;;;;;;;;;;5090445;28;19924;-58
2023/06/21 00:52:05;;;;;;;;;;;;;;;;;;5091151;28;19931;-58
2023/06/21 00:54:31;;;;;;;;;;;;;;;;;;5090516;28;19924;-58
2023/06/21 00:56:57;;;;;;;;;;;;;;;;;;5090325;28;19931;-58
2023/06/21 00:59:26;;;;;;;;;;;;;;;;;;5090692;28;20015;-58
2023/06/21 01:01:52;;;;;;;;;;;;;;;;;;5072356;28;19920;-59
2023/06/21 01:04:18;;;;;;;;;;;;;;;;;;5090208;28;19928;-58
2023/06/21 01:06:45;;;;;;;;;;;;;;;;;;5090570;28;19920;-58
2023/06/21 01:09:11;;;;;;;;;;;;;;;;;;5090715;28;20386;-58
2023/06/21 01:11:37;;;;;;;;;;;;;;;;;;5090025;28;19981;-59
2023/06/21 01:14:03;;;;;;;;;;;;;;;;;;5090592;28;19926;-58
2023/06/21 01:16:29;;;;;;;;;;;;;;;;;;5090054;28;20010;-59
2023/06/21 01:18:55;;;;;;;;;;;;;;;;;;5090049;28;19963;-59
2023/06/21 01:21:22;;;;;;;;;;;;;;;;;;5090504;28;20475;-58
2023/06/21 01:23:51;;;;;;;;;;;;;;;;;;5090088;28;20336;-58
2023/06/21 01:26:16;;;;;;;;;;;;;;;;;;5061066;28;20015;-59
2023/06/21 01:28:42;;;;;;;;;;;;;;;;;;5069987;28;20015;-58
2023/06/21 01:31:09;;;;;;;;;;;;;;;;;;5084332;28;20385;-58
2023/06/21 01:33:35;;;;;;;;;;;;;;;;;;5089508;28;19928;-58
2023/06/21 01:36:03;;;;;;;;;;;;;;;;;;5090157;28;20334;-59
2023/06/21 01:38:29;;;;;;;;;;;;;;;;;;5090160;28;19926;-58
2023/06/21 01:40:55;;;;;;;;;;;;;;;;;;5089540;28;19995;-58
2023/06/21 01:43:21;;;;;;;;;;;;;;;;;;5089898;28;19997;-58
2023/06/21 01:45:47;;;;;;;;;;;;;;;;;;5090058;28;19924;-58
2023/06/21 01:48:12;;;;;;;;;;;;;;;;;;5089293;28;19927;-58
2023/06/21 01:50:40;;;;;;;;;;;;;;;;;;5089844;28;19924;-58
2023/06/21 01:53:05;;;;;;;;;;;;;;;;;;5071462;28;19928;-59
2023/06/21 01:55:31;;;;;;;;;;;;;;;;;;5089018;28;20030;-58
2023/06/21 01:57:57;;;;;;;;;;;;;;;;;;5089966;28;20430;-59
2023/06/21 02:00:25;;;;;;;;;;;;;;;;;;5089428;28;20405;-59
2023/06/21 02:02:51;;;;;;;;;;;;;;;;;;5089147;28;20195;-58
2023/06/21 02:05:17;;;;;;;;;;;;;;;;;;5089449;28;19928;-58
2023/06/21 02:07:43;;;;;;;;;;;;;;;;;;5089029;28;19927;-58
2023/06/21 02:10:09;;;;;;;;;;;;;;;;;;5088996;28;19932;-58
2023/06/21 02:12:35;;;;;;;;;;;;;;;;;;5089029;28;19978;-58
2023/06/21 02:15:01;;;;;;;;;;;;;;;;;;5089316;28;19975;-58
2023/06/21 02:17:29;;;;;;;;;;;;;;;;;;5070701;28;20384;-58
2023/06/21 02:19:55;;;;;;;;;;;;;;;;;;5089385;28;20397;-58
2023/06/21 02:22:21;;;;;;;;;;;;;;;;;;5089281;28;20236;-58
2023/06/21 02:24:47;;;;;;;;;;;;;;;;;;5088761;28;19928;-59
2023/06/21 02:27:13;;;;;;;;;;;;;;;;;;5070634;28;19946;-57
2023/06/21 02:29:39;;;;;;;;;;;;;;;;;;5070863;28;19927;-58
2023/06/21 02:32:05;;;;;;;;;;;;;;;;;;5088892;28;19947;-58
2023/06/21 02:34:31;;;;;;;;;;;;;;;;;;5088745;28;19928;-58
2023/06/21 02:36:57;;;;;;;;;;;;;;;;;;5089175;28;20023;-58
2023/06/21 02:39:24;;;;;;;;;;;;;;;;;;5089070;28;19924;-59
2023/06/21 02:41:51;;;;;;;;;;;;;;;;;;5088680;28;19924;-58
2023/06/21 02:44:17;;;;;;;;;;;;;;;;;;5089075;28;20368;-58
2023/06/21 02:46:43;;;;;;;;;;;;;;;;;;5089111;28;19924;-58
2023/06/21 02:49:09;;;;;;;;;;;;;;;;;;5088668;28;19923;-58
2023/06/21 02:51:35;;;;;;;;;;;;;;;;;;5088970;28;20393;-58
2023/06/21 02:54:01;;;;;;;;;;;;;;;;;;5088629;28;20373;-58
2023/06/21 02:56:30;;;;;;;;;;;;;;;;;;5088414;28;19956;-58
2023/06/21 02:58:56;;;;;;;;;;;;;;;;;;5088941;28;20007;-58
2023/06/21 03:01:22;;;;;;;;;;;;;;;;;;5088975;28;20410;-58
2023/06/21 03:03:47;;;;;;;;;;;;;;;;;;5088310;28;19963;-58
2023/06/21 03:06:13;;;;;;;;;;;;;;;;;;5088930;28;19969;-58
2023/06/21 03:08:40;;;;;;;;;;;;;;;;;;5088919;28;19921;-58
2023/06/21 03:11:08;;;;;;;;;;;;;;;;;;5088096;28;20134;-58
2023/06/21 03:13:34;;;;;;;;;;;;;;;;;;5088764;28;19930;-58
2023/06/21 03:16:02;;;;;;;;;;;;;;;;;;5088884;28;19920;-59
2023/06/21 03:18:28;;;;;;;;;;;;;;;;;;5091193;28;19927;-59
2023/06/21 03:20:54;;;;;;;;;;;;;;;;;;5092926;28;19920;-58
2023/06/21 03:23:20;;;;;;;;;;;;;;;;;;5092634;28;19931;-58
2023/06/21 03:25:46;;;;;;;;;;;;;;;;;;5085592;28;19924;-59
2023/06/21 03:28:12;;;;;;;;;;;;;;;;;;5072167;28;19924;-58
2023/06/21 03:30:38;;;;;;;;;;;;;;;;;;5082318;28;19924;-59
2023/06/21 03:33:04;;;;;;;;;;;;;;;;;;5091743;28;20437;-58
2023/06/21 03:35:29;;;;;;;;;;;;;;;;;;5074012;28;20011;-57
2023/06/21 03:37:55;;;;;;;;;;;;;;;;;;5092301;28;19924;-58
2023/06/21 03:40:21;;;;;;;;;;;;;;;;;;5091753;28;20191;-58
2023/06/21 03:42:47;;;;;;;;;;;;;;;;;;5093048;28;19924;-58
2023/06/21 03:45:13;;;;;;;;;;;;;;;;;;5094142;28;19949;-58
2023/06/21 03:47:39;;;;;;;;;;;;;;;;;;5093731;28;19973;-58
2023/06/21 03:50:05;;;;;;;;;;;;;;;;;;5075543;28;19923;-58
2023/06/21 03:52:31;;;;;;;;;;;;;;;;;;5093593;28;20401;-58
2023/06/21 03:54:57;;;;;;;;;;;;;;;;;;5092757;28;19959;-58
2023/06/21 03:57:23;;;;;;;;;;;;;;;;;;5093952;28;20014;-58
2023/06/21 03:59:49;;;;;;;;;;;;;;;;;;5093511;28;19920;-58
2023/06/21 04:02:15;;;;;;;;;;;;;;;;;;5093387;28;20024;-59
2023/06/21 04:04:41;;;;;;;;;;;;;;;;;;5093785;28;20136;-58
2023/06/21 04:07:07;;;;;;;;;;;;;;;;;;5093905;28;19932;-58
2023/06/21 04:09:33;;;;;;;;;;;;;;;;;;5093151;28;19928;-58
2023/06/21 04:11:59;;;;;;;;;;;;;;;;;;5093672;28;19928;-58
2023/06/21 04:14:25;;;;;;;;;;;;;;;;;;5093586;28;19928;-58
2023/06/21 04:16:51;;;;;;;;;;;;;;;;;;5093185;28;19920;-58
2023/06/21 04:19:17;;;;;;;;;;;;;;;;;;5093776;28;19926;-58
2023/06/21 04:21:43;;;;;;;;;;;;;;;;;;5093606;28;19928;-58
2023/06/21 04:24:09;;;;;;;;;;;;;;;;;;5093138;28;19955;-58
2023/06/21 04:26:35;;;;;;;;;;;;;;;;;;5080111;28;19928;-58
2023/06/21 04:29:01;;;;;;;;;;;;;;;;;;5072227;28;20002;-58
2023/06/21 04:31:27;;;;;;;;;;;;;;;;;;5070960;28;20006;-58
2023/06/21 04:33:53;;;;;;;;;;;;;;;;;;5093117;28;19951;-58
2023/06/21 04:36:19;;;;;;;;;;;;;;;;;;5074651;28;19931;-58
2023/06/21 04:38:49;;;;;;;;;;;;;;;;;;5057337;28;20378;-58
2023/06/21 04:41:15;;;;;;;;;;;;;;;;;;5093130;28;20015;-58
2023/06/21 04:43:42;;;;;;;;;;;;;;;;;;5093078;28;20278;-58
2023/06/21 04:46:07;;;;;;;;;;;;;;;;;;5092565;28;19939;-58
2023/06/21 04:48:33;;;;;;;;;;;;;;;;;;5057992;28;20268;-58
2023/06/21 04:50:59;;;;;;;;;;;;;;;;;;5092900;28;20002;-58
2023/06/21 04:53:29;;;;;;;;;;;;;;;;;;5092310;28;19924;-58
2023/06/21 04:55:55;;;;;;;;;;;;;;;;;;5092740;28;19920;-58
2023/06/21 04:58:21;;;;;;;;;;;;;;;;;;5092964;28;20329;-58
2023/06/21 05:00:47;;;;;;;;;;;;;;;;;;5092218;28;19971;-58
2023/06/21 05:03:13;;;;;;;;;;;;;;;;;;5092749;28;19924;-58
2023/06/21 05:05:39;;;;;;;;;;;;;;;;;;5092745;28;19920;-58
2023/06/21 05:08:06;;;;;;;;;;;;;;;;;;5092322;28;20012;-58
2023/06/21 05:10:31;;;;;;;;;;;;;;;;;;5092405;28;19930;-58
2023/06/21 05:12:58;;;;;;;;;;;;;;;;;;5092513;28;20076;-59
2023/06/21 05:15:23;;;;;;;;;;;;;;;;;;5091714;28;19930;-58
2023/06/21 05:17:49;;;;;;;;;;;;;;;;;;5092562;28;19920;-59
2023/06/21 05:20:15;;;;;;;;;;;;;;;;;;5092389;28;19920;-59
2023/06/21 05:22:42;;;;;;;;;;;;;;;;;;5091987;28;20409;-58
2023/06/21 05:25:08;;;;;;;;;;;;;;;;;;5091555;28;19928;-58
2023/06/21 05:27:34;;;;;;;;;;;;;;;;;;5071952;28;19924;-58
2023/06/21 05:30:00;;;;;;;;;;;;;;;;;;5076239;28;20032;-58
2023/06/21 05:32:26;;;;;;;;;;;;;;;;;;5092192;28;19924;-58
2023/06/21 05:34:53;;;;;;;;;;;;;;;;;;5092025;28;19920;-58
2023/06/21 05:37:19;;;;;;;;;;;;;;;;;;5091533;28;19920;-58
2023/06/21 05:39:45;;;;;;;;;;;;;;;;;;5092103;28;19942;-58
2023/06/21 05:42:11;;;;;;;;;;;;;;;;;;5091098;28;19924;-58
2023/06/21 05:44:37;;;;;;;;;;;;;;;;;;5091604;28;19928;-58
2023/06/21 05:47:03;;;;;;;;;;;;;;;;;;5091977;28;19920;-58
2023/06/21 05:49:29;;;;;;;;;;;;;;;;;;5091950;28;19951;-58
2023/06/21 05:51:55;;;;;;;;;;;;;;;;;;5072924;28;20310;-58
2023/06/21 05:54:21;;;;;;;;;;;;;;;;;;5091691;28;20018;-59
2023/06/21 05:56:46;;;;;;;;;;;;;;;;;;5091920;28;19924;-58
2023/06/21 05:59:12;;;;;;;;;;;;;;;;;;5091478;28;19924;-58
2023/06/21 06:01:38;;;;;;;;;;;;;;;;;;5090959;28;19924;-58
2023/06/21 06:04:04;;;;;;;;;;;;;;;;;;5091213;28;20275;-58
2023/06/21 06:06:30;;;;;;;;;;;;;;;;;;5091348;28;19950;-58
2023/06/21 06:08:56;;;;;;;;;;;;;;;;;;5090916;28;19928;-58
2023/06/21 06:11:22;;;;;;;;;;;;;;;;;;5091471;28;19947;-58
2023/06/21 06:13:48;;;;;;;;;;;;;;;;;;5091498;28;19974;-59
2023/06/21 06:16:14;;;;;;;;;;;;;;;;;;5090814;28;19966;-58
2023/06/21 06:18:40;;;;;;;;;;;;;;;;;;5073305;28;19920;-58
2023/06/21 06:21:06;;;;;;;;;;;;;;;;;;5091339;28;19927;-58
2023/06/21 06:23:32;;;;;;;;;;;;;;;;;;5090812;28;19920;-58
2023/06/21 06:25:58;;;;;;;;;;;;;;;;;;5083279;28;19924;-58
2023/06/21 06:28:24;;;;;;;;;;;;;;;;;;5071077;28;19970;-59
2023/06/21 06:30:50;;;;;;;;;;;;;;;;;;5082293;28;19963;-58
2023/06/21 06:33:16;;;;;;;;;;;;;;;;;;5091039;28;19931;-59
2023/06/21 06:35:42;;;;;;;;;;;;;;;;;;5084078;28;19920;-59
2023/06/21 06:38:08;;;;;;;;;;;;;;;;;;5088930;28;20014;-59
2023/06/21 06:40:34;;;;;;;;;;;;;;;;;;5084955;28;19920;-59
2023/06/21 06:43:00;;;;;;;;;;;;;;;;;;5090210;28;19920;-59
2023/06/21 06:45:26;;;;;;;;;;;;;;;;;;5090279;28;20409;-59
2023/06/21 06:47:52;;;;;;;;;;;;;;;;;;5090723;28;20052;-59
2023/06/21 06:50:17;;;;;;;;;;;;;;;;;;5064989;28;19951;-58
2023/06/21 06:52:44;;;;;;;;;;;;;;;;;;5071541;28;19924;-59
2023/06/21 06:55:10;;;;;;;;;;;;;;;;;;5091315;28;20005;-59
2023/06/21 06:57:36;;;;;;;;;;;;;;;;;;5094210;28;20515;-59
2023/06/21 07:00:05;;;;;;;;;;;;;;;;;;5089779;28;20351;-57
2023/06/21 07:02:31;;;;;;;;;;;;;;;;;;5076259;28;19955;-58
2023/06/21 07:04:57;;;;;;;;;;;;;;;;;;5076430;28;20405;-59
2023/06/21 07:07:23;;;;;;;;;;;;;;;;;;5093741;28;20275;-58
2023/06/21 07:09:49;;;;;;;;;;;;;;;;;;5094441;28;19923;-58
2023/06/21 07:12:15;;;;;;;;;;;;;;;;;;5089525;28;19928;-59
2023/06/21 07:14:41;;;;;;;;;;;;;;;;;;5093712;28;19924;-59
2023/06/21 07:17:07;;;;;;;;;;;;;;;;;;5071191;28;19920;-59
2023/06/21 07:19:33;;;;;;;;;;;;;;;;;;5094251;28;20312;-59
2023/06/21 07:22:02;;;;;;;;;;;;;;;;;;5084824;28;19949;-58
2023/06/21 07:24:28;;;;;;;;;;;;;;;;;;5094245;28;19949;-59
2023/06/21 07:26:54;;;;;;;;;;;;;;;;;;5088304;28;20069;-58
2023/06/21 07:29:19;;;;;;;;;;;;;;;;;;5093713;28;19920;-58
2023/06/21 07:31:45;;;;;;;;;;;;;;;;;;5088885;28;19939;-59
2023/06/21 07:34:12;;;;;;;;;;;;;;;;;;5093943;28;19923;-59
2023/06/21 07:36:39;;;;;;;;;;;;;;;;;;5075240;28;19920;-58
2023/06/21 07:39:05;;;;;;;;;;;;;;;;;;5093892;28;19920;-58
2023/06/21 07:41:31;;;;;;;;;;;;;;;;;;5094090;28;20402;-59
2023/06/21 07:43:56;;;;;;;;;;;;;;;;;;5092781;28;19930;-58
2023/06/21 07:46:22;;;;;;;;;;;;;;;;;;5093420;28;19943;-58
2023/06/21 07:48:48;;;;;;;;;;;;;;;;;;5093387;28;20010;-58
2023/06/21 07:51:14;;;;;;;;;;;;;;;;;;5091875;28;19920;-59
2023/06/21 07:53:40;;;;;;;;;;;;;;;;;;5093756;28;19928;-59
2023/06/21 07:56:06;;;;;;;;;;;;;;;;;;5093307;28;19943;-59
2023/06/21 07:58:32;;;;;;;;;;;;;;;;;;5092448;28;19924;-58
2023/06/21 08:00:58;;;;;;;;;;;;;;;;;;5093654;28;19923;-59
2023/06/21 08:03:24;;;;;;;;;;;;;;;;;;5088374;28;20401;-58
2023/06/21 08:05:50;;;;;;;;;;;;;;;;;;5092527;28;19927;-59
2023/06/21 08:08:17;;;;;;;;;;;;;;;;;;5093410;28;19920;-59
2023/06/21 08:10:43;;;;;;;;;;;;;;;;;;5088363;28;20004;-58
2023/06/21 08:13:09;;;;;;;;;;;;;;;;;;5092909;28;19978;-58
2023/06/21 08:15:35;;;;;;;;;;;;;;;;;;5093187;28;20397;-58
2023/06/21 08:18:01;;;;;;;;;;;;;;;;;;5074945;28;19924;-59
2023/06/21 08:20:27;;;;;;;;;;;;;;;;;;5088879;28;19927;-58
2023/06/21 08:22:53;;;;;;;;;;;;;;;;;;5093065;28;20378;-59
2023/06/21 08:25:19;;;;;;;;;;;;;;;;;;5092912;28;19924;-59
2023/06/21 08:27:45;;;;;;;;;;;;;;;;;;5091810;28;19951;-58
2023/06/21 08:30:11;;;;;;;;;;;;;;;;;;5088323;28;19927;-59
2023/06/21 08:32:37;;;;;;;;;;;;;;;;;;5093464;28;19993;-59
2023/06/21 08:35:03;;;;;;;;;;;;;;;;;;5092407;28;20085;-58
2023/06/21 08:37:29;;;;;;;;;;;;;;;;;;5069665;28;19942;-58
2023/06/21 08:39:56;;;;;;;;;;;;;;;;;;5092531;28;19920;-59
2023/06/21 08:42:24;;;;;;;;;;;;;;;;;;5092397;28;19924;-59
2023/06/21 08:44:50;;;;;;;;;;;;;;;;;;5088172;28;20240;-59
2023/06/21 08:47:16;;;;;;;;;;;;;;;;;;5092396;28;20013;-59
2023/06/21 08:49:41;;;;;;;;;;;;;;;;;;5092124;28;20010;-59
2023/06/21 08:52:07;;;;;;;;;;;;;;;;;;5092619;28;19932;-59
2023/06/21 08:54:33;;;;;;;;;;;;;;;;;;5074282;28;19924;-59
2023/06/21 08:56:59;;;;;;;;;;;;;;;;;;5092394;28;19920;-59
2023/06/21 08:59:25;;;;;;;;;;;;;;;;;;5092377;28;19942;-59
2023/06/21 09:01:51;;;;;;;;;;;;;;;;;;5074132;28;19924;-59
2023/06/21 09:04:17;;;;;;;;;;;;;;;;;;5070377;28;19920;-58
2023/06/21 09:06:43;;;;;;;;;;;;;;;;;;5092303;28;19924;-58
2023/06/21 09:09:09;;;;;;;;;;;;;;;;;;5088918;28;19925;-58
2023/06/21 09:11:36;;;;;;;;;;;;;;;;;;5080694;28;19938;-58
2023/06/21 09:14:04;;;;;;;;;;;;;;;;;;5071666;28;19924;-58
2023/06/21 09:16:30;;;;;;;;;;;;;;;;;;5091881;28;19981;-58
2023/06/21 09:18:56;;;;;;;;;;;;;;;;;;5091777;28;19967;-59
2023/06/21 09:21:22;;;;;;;;;;;;;;;;;;5086648;28;20018;-59
2023/06/21 09:23:48;;;;;;;;;;;;;;;;;;5073734;28;19946;-59
2023/06/21 09:26:14;;;;;;;;;;;;;;;;;;5089067;28;19977;-58
2023/06/21 09:28:40;;;;;;;;;;;;;;;;;;5090756;28;19920;-59
2023/06/21 09:31:06;;;;;;;;;;;;;;;;;;5091953;28;19927;-60
2023/06/21 09:33:32;;;;;;;;;;;;;;;;;;5091238;28;19928;-62
2023/06/21 09:35:58;;;;;;;;;;;;;;;;;;5090087;28;19999;-61
2023/06/21 09:38:24;;;;;;;;;;;;;;;;;;5090455;28;19999;-62
2023/06/21 09:40:50;;;;;;;;;;;;;;;;;;5090897;28;19927;-61
2023/06/21 09:43:16;;;;;;;;;;;;;;;;;;5090112;28;20018;-60
2023/06/21 09:45:42;;;;;;;;;;;;;;;;;;5091227;28;20060;-62
2023/06/21 09:48:08;;;;;;;;;;;;;;;;;;5091139;28;20054;-62
2023/06/21 09:50:34;;;;;;;;;;;;;;;;;;5072349;28;19928;-61
2023/06/21 09:53:00;;;;;;;;;;;;;;;;;;5091048;28;19928;-62
2023/06/21 09:55:26;;;;;;;;;;;;;;;;;;5090982;28;19977;-62
2023/06/21 09:57:52;;;;;;;;;;;;;;;;;;5090713;28;20003;-61
2023/06/21 10:00:18;;;;;;;;;;;;;;;;;;5090873;28;19951;-61
2023/06/21 10:02:44;;;;;;;;;;;;;;;;;;5085924;28;19920;-61
2023/06/21 10:05:10;;;;;;;;;;;;;;;;;;5072172;28;19931;-61
2023/06/21 10:07:36;;;;;;;;;;;;;;;;;;5085693;28;19994;-60
2023/06/21 10:10:02;;;;;;;;;;;;;;;;;;5090354;28;20389;-62
2023/06/21 10:12:28;;;;;;;;;;;;;;;;;;5067252;28;19924;-60
2023/06/21 10:14:54;;;;;;;;;;;;;;;;;;5090717;28;19924;-60
2023/06/21 10:17:20;;;;;;;;;;;;;;;;;;5091428;28;19951;-60
2023/06/21 10:19:46;;;;;;;;;;;;;;;;;;5090813;28;19924;-61
2023/06/21 10:22:12;;;;;;;;;;;;;;;;;;5091434;28;19924;-61
2023/06/21 10:24:38;;;;;;;;;;;;;;;;;;5091245;28;19935;-60
2023/06/21 10:27:04;;;;;;;;;;;;;;;;;;5089394;28;19931;-61
2023/06/21 10:29:30;;;;;;;;;;;;;;;;;;5091289;28;19920;-61
2023/06/21 10:31:56;;;;;;;;;;;;;;;;;;5091098;28;20297;-60
2023/06/21 10:34:22;;;;;;;;;;;;;;;;;;5090393;28;19930;-60
2023/06/21 10:36:48;;;;;;;;;;;;;;;;;;5085599;28;20035;-60
2023/06/21 10:39:14;;;;;;;;;;;;;;;;;;5090840;28;20298;-60
2023/06/21 10:41:40;;;;;;;;;;;;;;;;;;5090599;28;19920;-60
2023/06/21 10:44:06;;;;;;;;;;;;;;;;;;5091152;28;20013;-60
2023/06/21 10:46:32;;;;;;;;;;;;;;;;;;5090991;28;19920;-60
2023/06/21 10:48:58;;;;;;;;;;;;;;;;;;5090825;28;20015;-60
2023/06/21 10:51:24;;;;;;;;;;;;;;;;;;5091125;28;20019;-60
2023/06/21 10:53:50;;;;;;;;;;;;;;;;;;5090813;28;19935;-60
2023/06/21 10:56:16;;;;;;;;;;;;;;;;;;5090494;28;20027;-60
2023/06/21 10:58:42;;;;;;;;;;;;;;;;;;5090919;28;19967;-60
2023/06/21 11:01:08;;;;;;;;;;;;;;;;;;5091212;28;19959;-60
2023/06/21 11:03:34;;;;;;;;;;;;;;;;;;5090192;28;19969;-60
2023/06/21 11:06:00;;;;;;;;;;;;;;;;;;5080328;28;19927;-58
2023/06/21 11:08:30;;;;;;;;;;;;;;;;;;5072040;28;19923;-58
2023/06/21 11:10:55;;;;;;;;;;;;;;;;;;5085694;28;19973;-59
2023/06/21 11:13:21;;;;;;;;;;;;;;;;;;5090008;28;19928;-59
2023/06/21 11:15:48;;;;;;;;;;;;;;;;;;5089833;28;19924;-59
2023/06/21 11:18:18;;;;;;;;;;;;;;;;;;5089495;28;20306;-59
2023/06/21 11:20:44;;;;;;;;;;;;;;;;;;5090019;28;19998;-60
2023/06/21 11:23:10;;;;;;;;;;;;;;;;;;5090151;28;19920;-59
2023/06/21 11:25:36;;;;;;;;;;;;;;;;;;5089546;28;19924;-62
2023/06/21 11:28:02;;;;;;;;;;;;;;;;;;5090271;28;19959;-60
2023/06/21 11:30:31;;;;;;;;;;;;;;;;;;5089994;28;19928;-61
2023/06/21 11:32:57;;;;;;;;;;;;;;;;;;5089914;28;20468;-61
2023/06/21 11:35:23;;;;;;;;;;;;;;;;;;5058050;28;19925;-61
2023/06/21 11:37:50;;;;;;;;;;;;;;;;;;5070132;28;19977;-61
2023/06/21 11:40:18;;;;;;;;;;;;;;;;;;5092215;28;20018;-61
2023/06/21 11:42:44;;;;;;;;;;;;;;;;;;5093839;28;19924;-61
2023/06/21 11:45:10;;;;;;;;;;;;;;;;;;5093865;28;20018;-61
2023/06/21 11:47:35;;;;;;;;;;;;;;;;;;5093271;28;19924;-61
2023/06/21 11:50:03;;;;;;;;;;;;;;;;;;5077917;28;19923;-61
2023/06/21 11:52:29;;;;;;;;;;;;;;;;;;5084373;28;19978;-61
2023/06/21 11:54:55;;;;;;;;;;;;;;;;;;5080941;28;19993;-61
2023/06/21 11:57:21;;;;;;;;;;;;;;;;;;5090387;28;19928;-61
2023/06/21 11:59:47;;;;;;;;;;;;;;;;;;5084179;28;19951;-61
2023/06/21 12:02:13;;;;;;;;;;;;;;;;;;5088821;28;19960;-61
2023/06/21 12:04:39;;;;;;;;;;;;;;;;;;5092175;28;19924;-61
2023/06/21 12:07:05;;;;;;;;;;;;;;;;;;5072660;28;19928;-61
2023/06/21 12:09:31;;;;;;;;;;;;;;;;;;5073289;28;19948;-61
2023/06/21 12:11:57;;;;;;;;;;;;;;;;;;5077363;28;20396;-61
2023/06/21 12:14:23;;;;;;;;;;;;;;;;;;5074375;28;19920;-61
2023/06/21 12:16:49;;;;;;;;;;;;;;;;;;5081226;28;19926;-61
2023/06/21 12:19:15;;;;;;;;;;;;;;;;;;5091412;28;19924;-61
2023/06/21 12:21:42;;;;;;;;;;;;;;;;;;5088201;28;19924;-61
2023/06/21 12:24:08;;;;;;;;;;;;;;;;;;5073201;28;19994;-61
2023/06/21 12:26:34;;;;;;;;;;;;;;;;;;5084481;28;20554;-61
2023/06/21 12:29:00;;;;;;;;;;;;;;;;;;5082382;28;19928;-61
2023/06/21 12:31:27;;;;;;;;;;;;;;;;;;5074528;28;19924;-61
2023/06/21 12:33:53;;;;;;;;;;;;;;;;;;5074201;28;20391;-60
2023/06/21 12:36:20;;;;;;;;;;;;;;;;;;5083060;28;19947;-61
2023/06/21 12:38:46;;;;;;;;;;;;;;;;;;5084206;28;19951;-60
2023/06/21 12:41:12;;;;;;;;;;;;;;;;;;5081367;28;19963;-60
2023/06/21 12:43:38;;;;;;;;;;;;;;;;;;5083481;28;19931;-60
2023/06/21 12:46:04;;;;;;;;;;;;;;;;;;5081178;28;20015;-61
2023/06/21 12:48:30;;;;;;;;;;;;;;;;;;5060116;28;20331;-61
2023/06/21 12:50:55;;;;;;;;;;;;;;;;;;5082762;28;19970;-61
2023/06/21 12:53:21;;;;;;;;;;;;;;;;;;5073412;28;19968;-61
2023/06/21 12:55:48;;;;;;;;;;;;;;;;;;5071963;28;19924;-61
2023/06/21 12:58:14;;;;;;;;;;;;;;;;;;5080794;28;19920;-61
2023/06/21 13:00:40;;;;;;;;;;;;;;;;;;5086444;28;19924;-61
2023/06/21 13:03:06;;;;;;;;;;;;;;;;;;5072260;28;19931;-60
2023/06/21 13:05:31;;;;;;;;;;;;;;;;;;5084392;28;19924;-59
2023/06/21 13:07:57;;;;;;;;;;;;;;;;;;5060061;28;19925;-59
2023/06/21 13:10:23;;;;;;;;;;;;;;;;;;5074653;28;19943;-60
2023/06/21 13:12:49;;;;;;;;;;;;;;;;;;5072144;28;19928;-60
2023/06/21 13:15:15;;;;;;;;;;;;;;;;;;5065241;28;19920;-60
2023/06/21 13:17:41;;;;;;;;;;;;;;;;;;5083694;28;19925;-60
2023/06/21 13:20:07;;;;;;;;;;;;;;;;;;5073907;28;20011;-60
2023/06/21 13:22:33;;;;;;;;;;;;;;;;;;5074422;28;20301;-60
2023/06/21 13:24:59;;;;;;;;;;;;;;;;;;5090819;28;19920;-59
2023/06/21 13:27:25;;;;;;;;;;;;;;;;;;5077497;28;20373;-59
2023/06/21 13:29:51;;;;;;;;;;;;;;;;;;5071205;28;19924;-59
2023/06/21 13:32:17;;;;;;;;;;;;;;;;;;5087665;28;19969;-60
2023/06/21 13:34:43;;;;;;;;;;;;;;;;;;5086508;28;19959;-59
2023/06/21 13:37:09;;;;;;;;;;;;;;;;;;5077552;28;19939;-60
2023/06/21 13:39:35;;;;;;;;;;;;;;;;;;5085352;28;19969;-60
2023/06/21 13:42:01;;;;;;;;;;;;;;;;;;5070592;28;19924;-60
2023/06/21 13:44:27;;;;;;;;;;;;;;;;;;5089466;28;19926;-60
2023/06/21 13:46:53;;;;;;;;;;;;;;;;;;5090546;28;19935;-60
2023/06/21 13:49:19;;;;;;;;;;;;;;;;;;5089236;28;19928;-60
2023/06/21 13:51:45;;;;;;;;;;;;;;;;;;5077508;28;19927;-60
2023/06/21 13:54:11;;;;;;;;;;;;;;;;;;5069901;28;19966;-60
2023/06/21 13:56:37;;;;;;;;;;;;;;;;;;5074139;28;19924;-60
2023/06/21 13:59:03;;;;;;;;;;;;;;;;;;5069941;28;19979;-60
2023/06/21 14:01:28;;;;;;;;;;;;;;;;;;5075696;28;19927;-60
2023/06/21 14:03:54;;;;;;;;;;;;;;;;;;5078063;28;19973;-60
2023/06/21 14:06:21;;;;;;;;;;;;;;;;;;5075418;28;19997;-60
2023/06/21 14:08:47;;;;;;;;;;;;;;;;;;5076321;28;19920;-60
2023/06/21 14:11:12;;;;;;;;;;;;;;;;;;5076551;28;20517;-60
2023/06/21 14:13:38;;;;;;;;;;;;;;;;;;5090340;28;20024;-60
2023/06/21 14:16:04;;;;;;;;;;;;;;;;;;5089526;28;19920;-60
2023/06/21 14:18:30;;;;;;;;;;;;;;;;;;5079646;28;19921;-60
2023/06/21 14:20:56;;;;;;;;;;;;;;;;;;5086201;28;19924;-60
2023/06/21 14:23:23;;;;;;;;;;;;;;;;;;5075724;28;19999;-60
2023/06/21 14:25:48;;;;;;;;;;;;;;;;;;5074097;28;19951;-60
2023/06/21 14:28:14;;;;;;;;;;;;;;;;;;5071395;28;20703;-60
2023/06/21 14:30:40;;;;;;;;;;;;;;;;;;5070588;28;19995;-60
2023/06/21 14:33:06;;;;;;;;;;;;;;;;;;5081313;28;19972;-60
2023/06/21 14:35:32;;;;;;;;;;;;;;;;;;5070117;28;19921;-60
2023/06/21 14:37:59;;;;;;;;;;;;;;;;;;5082012;28;20058;-60
2023/06/21 14:40:25;;;;;;;;;;;;;;;;;;5070371;28;19920;-60
2023/06/21 14:42:51;;;;;;;;;;;;;;;;;;5071478;28;19924;-60
2023/06/21 14:45:17;;;;;;;;;;;;;;;;;;5073331;28;19946;-60
2023/06/21 14:47:44;;;;;;;;;;;;;;;;;;5088476;28;19951;-60
2023/06/21 14:50:10;;;;;;;;;;;;;;;;;;5078991;28;19927;-60
2023/06/21 14:52:36;;;;;;;;;;;;;;;;;;5089696;28;19928;-60
2023/06/21 14:55:02;;;;;;;;;;;;;;;;;;5076956;28;19993;-60
2023/06/21 14:57:28;;;;;;;;;;;;;;;;;;5088525;28;19924;-60
2023/06/21 14:59:55;;;;;;;;;;;;;;;;;;5087796;28;19928;-60
2023/06/21 15:02:21;;;;;;;;;;;;;;;;;;5088627;28;19920;-60
2023/06/21 15:04:47;;;;;;;;;;;;;;;;;;5089875;28;19950;-60
2023/06/21 15:07:17;;;;;;;;;;;;;;;;;;5084050;28;20003;-60
2023/06/21 15:09:43;;;;;;;;;;;;;;;;;;5088216;28;19931;-60
2023/06/21 15:12:09;;;;;;;;;;;;;;;;;;5081452;28;19932;-63
2023/06/21 15:14:35;;;;;;;;;;;;;;;;;;5078011;28;19978;-63
2023/06/21 15:17:01;;;;;;;;;;;;;;;;;;5075221;28;20007;-63
2023/06/21 15:19:27;;;;;;;;;;;;;;;;;;5075485;28;19991;-63
2023/06/21 15:21:53;;;;;;;;;;;;;;;;;;5074143;28;19943;-63
2023/06/21 15:24:19;;;;;;;;;;;;;;;;;;5076438;28;19921;-63
2023/06/21 15:26:45;;;;;;;;;;;;;;;;;;5080627;28;19929;-63
2023/06/21 15:29:11;;;;;;;;;;;;;;;;;;5073016;28;19972;-63
2023/06/21 15:31:37;;;;;;;;;;;;;;;;;;5077640;28;19942;-63
2023/06/21 15:34:03;;;;;;;;;;;;;;;;;;5091996;28;19977;-63
2023/06/21 15:36:30;;;;;;;;;;;;;;;;;;5060172;28;19954;-63
2023/06/21 15:38:57;;;;;;;;;;;;;;;;;;5082540;28;19986;-63
2023/06/21 15:41:22;;;;;;;;;;;;;;;;;;5079454;28;19920;-63
2023/06/21 15:43:48;;;;;;;;;;;;;;;;;;5083755;28;19936;-63
2023/06/21 15:46:17;;;;;;;;;;;;;;;;;;5056552;28;19920;-65
2023/06/21 15:48:43;;;;;;;;;;;;;;;;;;5055485;28;19924;-65
2023/06/21 15:51:09;;;;;;;;;;;;;;;;;;5088123;28;19924;-65
2023/06/21 15:53:35;;;;;;;;;;;;;;;;;;5093068;28;19974;-65
2023/06/21 15:56:01;;;;;;;;;;;;;;;;;;5093658;28;19998;-65
2023/06/21 15:58:27;;;;;;;;;;;;;;;;;;5093560;28;19951;-63
2023/06/21 16:00:53;;;;;;;;;;;;;;;;;;5093227;28;19931;-63
2023/06/21 16:03:19;;;;;;;;;;;;;;;;;;5093550;28;19935;-63
2023/06/21 16:05:45;;;;;;;;;;;;;;;;;;5093564;28;19923;-63
2023/06/21 16:08:11;;;;;;;;;;;;;;;;;;5093010;28;20366;-63
2023/06/21 16:10:37;;;;;;;;;;;;;;;;;;5093384;28;20010;-63
2023/06/21 16:13:03;;;;;;;;;;;;;;;;;;5093192;28;20483;-63
2023/06/21 16:15:29;;;;;;;;;;;;;;;;;;5092710;28;19951;-63
2023/06/21 16:17:55;;;;;;;;;;;;;;;;;;5093459;28;20282;-63
2023/06/21 16:20:21;;;;;;;;;;;;;;;;;;5093332;28;19960;-63
2023/06/21 16:22:47;;;;;;;;;;;;;;;;;;5092467;28;19927;-63
2023/06/21 16:25:12;;;;;;;;;;;;;;;;;;5090803;28;19931;-63
2023/06/21 16:27:38;;;;;;;;;;;;;;;;;;5072787;28;19960;-63
2023/06/21 16:30:05;;;;;;;;;;;;;;;;;;5077267;28;20015;-63
2023/06/21 16:32:30;;;;;;;;;;;;;;;;;;5092843;28;19963;-63
2023/06/21 16:34:56;;;;;;;;;;;;;;;;;;5092798;28;20015;-63
2023/06/21 16:37:22;;;;;;;;;;;;;;;;;;5092215;28;19978;-63